Time,TemperatureF,DewpointF,PressureIn,WindDirection,WindDirectionDegrees,WindSpeedMPH,WindSpeedGustMPH,Humidity,HourlyPrecipIn,Conditions,Clouds,dailyrainin,SoftwareType,DateUTC
2013-08-06 00:02:00,72.8,72.5,29.76,North,-999,0.0,-999.0,99,-99.99,,,-99.99,Acu-Link.com,2013-08-06 05:02:00,
2013-08-06 00:18:00,73.1,72.8,29.76,North,-999,0.0,-999.0,99,-99.99,,,-99.99,Acu-Link.com,2013-08-06 05:18:00,
2013-08-06 00:33:00,73.0,72.7,29.76,North,-999,0.0,-999.0,99,-99.99,,,-99.99,Acu-Link.com,2013-08-06 05:33:00,
2013-08-06 00:48:00,72.8,72.5,29.76,North,-999,0.0,-999.0,99,-99.99,,,-99.99,Acu-Link.com,2013-08-06 05:48:00,
2013-08-06 01:04:00,71.7,71.4,29.77,North,-999,0.0,-999.0,99,-99.99,,,-99.99,Acu-Link.com,2013-08-06 06:04:00,
2013-08-06 01:19:00,71.0,70.7,29.75,North,-999,0.0,-999.0,99,-99.99,,,-99.99,Acu-Link.com,2013-08-06 06:19:00,
2013-08-06 01:34:00,70.7,70.4,29.75,North,-999,0.0,-999.0,99,-99.99,,,-99.99,Acu-Link.com,2013-08-06 06:34:00,
2013-08-06 01:49:00,70.7,70.4,29.74,North,-999,0.0,-999.0,99,-99.99,,,-99.99,Acu-Link.com,2013-08-06 06:49:00,
2013-08-06 02:05:00,71.5,71.2,29.74,North,-999,0.0,-999.0,99,-99.99,,,-99.99,Acu-Link.com,2013-08-06 07:05:00,
2013-08-06 02:20:00,71.3,71.0,29.74,North,-999,0.0,-999.0,99,-99.99,,,-99.99,Acu-Link.com,2013-08-06 07:20:00,
2013-08-06 02:35:00,71.2,70.9,29.74,North,-999,0.0,-999.0,99,-99.99,,,-99.99,Acu-Link.com,2013-08-06 07:35:00,
2013-08-06 02:51:00,71.7,71.4,29.74,North,-999,0.0,-999.0,99,-99.99,,,-99.99,Acu-Link.com,2013-08-06 07:51:00,
2013-08-06 03:06:00,71.4,71.1,29.74,North,-999,0.0,-999.0,99,-99.99,,,-99.99,Acu-Link.com,2013-08-06 08:06:00,
2013-08-06 03:21:00,71.4,71.1,29.73,North,-999,0.0,-999.0,99,-99.99,,,-99.99,Acu-Link.com,2013-08-06 08:21:00,
2013-08-06 03:36:00,71.5,71.2,29.72,North,-999,0.0,-999.0,99,-99.99,,,-99.99,Acu-Link.com,2013-08-06 08:36:00,
2013-08-06 03:51:00,71.2,70.9,29.72,North,-999,0.0,-999.0,99,-99.99,,,-99.99,Acu-Link.com,2013-08-06 08:51:00,
2013-08-06 04:06:00,70.5,70.2,29.71,North,-999,0.0,-999.0,99,-99.99,,,-99.99,Acu-Link.com,2013-08-06 09:06:00,
2013-08-06 04:22:00,69.7,69.4,29.70,North,-999,0.0,-999.0,99,-99.99,,,-99.99,Acu-Link.com,2013-08-06 09:22:00,
2013-08-06 04:37:00,69.2,68.9,29.70,North,-999,0.0,-999.0,99,-99.99,,,-99.99,Acu-Link.com,2013-08-06 09:37:00,
2013-08-06 04:53:00,68.5,68.2,29.69,North,-999,0.0,-999.0,99,-99.99,,,-99.99,Acu-Link.com,2013-08-06 09:53:00,
2013-08-06 05:08:00,68.5,68.2,29.69,North,-999,0.0,-999.0,99,-99.99,,,-99.99,Acu-Link.com,2013-08-06 10:08:00,
2013-08-06 05:23:00,67.8,67.5,29.69,North,-999,0.0,-999.0,99,-99.99,,,-99.99,Acu-Link.com,2013-08-06 10:23:00,
2013-08-06 05:39:00,67.8,67.5,29.70,North,-999,0.0,-999.0,99,-99.99,,,-99.99,Acu-Link.com,2013-08-06 10:39:00,
2013-08-06 05:54:00,68.9,68.6,29.71,North,-999,0.0,-999.0,99,-99.99,,,-99.99,Acu-Link.com,2013-08-06 10:54:00,
2013-08-06 06:09:00,68.5,68.2,29.72,North,-999,0.0,-999.0,99,-99.99,,,-99.99,Acu-Link.com,2013-08-06 11:09:00,
2013-08-06 06:25:00,68.7,68.4,29.72,North,-999,0.0,-999.0,99,-99.99,,,-99.99,Acu-Link.com,2013-08-06 11:25:00,
2013-08-06 06:40:00,68.5,68.2,29.74,North,-999,0.0,-999.0,99,-99.99,,,-99.99,Acu-Link.com,2013-08-06 11:40:00,
2013-08-06 06:55:00,68.3,68.0,29.74,North,-999,0.0,-999.0,99,-99.99,,,-99.99,Acu-Link.com,2013-08-06 11:55:00,
2013-08-06 07:10:00,68.1,67.8,29.74,North,-999,0.0,-999.0,99,-99.99,,,-99.99,Acu-Link.com,2013-08-06 12:10:00,
2013-08-06 07:26:00,68.9,68.6,29.75,North,-999,0.0,-999.0,99,-99.99,,,-99.99,Acu-Link.com,2013-08-06 12:26:00,
2013-08-06 07:41:00,69.5,69.2,29.76,North,-999,0.0,-999.0,99,-99.99,,,-99.99,Acu-Link.com,2013-08-06 12:41:00,
2013-08-06 07:56:00,70.3,70.0,29.78,North,-999,0.0,-999.0,99,-99.99,,,-99.99,Acu-Link.com,2013-08-06 12:56:00,
2013-08-06 08:12:00,70.7,70.4,29.79,North,-999,0.0,-999.0,99,-99.99,,,-99.99,Acu-Link.com,2013-08-06 13:12:00,
2013-08-06 08:27:00,68.5,68.2,29.81,North,-999,12.8,-999.0,99,-99.99,,,-99.99,Acu-Link.com,2013-08-06 13:27:00,
2013-08-06 08:42:00,69.4,69.1,29.81,North,-999,6.4,-999.0,99,-99.99,,,-99.99,Acu-Link.com,2013-08-06 13:42:00,
2013-08-06 08:58:00,70.0,69.7,29.79,North,-999,6.4,-999.0,99,-99.99,,,-99.99,Acu-Link.com,2013-08-06 13:58:00,
2013-08-06 09:13:00,71.8,69.3,29.78,North,-999,9.6,-999.0,92,-99.99,,,-99.99,Acu-Link.com,2013-08-06 14:13:00,
2013-08-06 09:28:00,72.1,69.0,29.78,North,-999,12.8,-999.0,90,-99.99,,,-99.99,Acu-Link.com,2013-08-06 14:28:00,
2013-08-06 09:43:00,73.9,70.1,29.77,North,-999,9.6,-999.0,88,-99.99,,,-99.99,Acu-Link.com,2013-08-06 14:43:00,
2013-08-06 09:59:00,75.3,70.1,29.77,North,-999,9.6,-999.0,84,-99.99,,,-99.99,Acu-Link.com,2013-08-06 14:59:00,
2013-08-06 10:14:00,76.9,71.0,29.76,North,-999,9.6,-999.0,82,-99.99,,,-99.99,Acu-Link.com,2013-08-06 15:14:00,
2013-08-06 10:29:00,75.3,71.5,29.74,North,-999,4.8,-999.0,88,-99.99,,,-99.99,Acu-Link.com,2013-08-06 15:29:00,
2013-08-06 10:45:00,77.5,72.6,29.74,North,-999,0.0,-999.0,85,-99.99,,,-99.99,Acu-Link.com,2013-08-06 15:45:00,
2013-08-06 11:00:00,76.5,72.7,29.75,North,-999,0.0,-999.0,88,-99.99,,,-99.99,Acu-Link.com,2013-08-06 16:00:00,
2013-08-06 11:15:00,77.1,72.6,29.74,North,-999,3.2,-999.0,86,-99.99,,,-99.99,Acu-Link.com,2013-08-06 16:15:00,
2013-08-06 11:31:00,80.3,74.7,29.75,North,-999,0.0,-999.0,83,-99.99,,,-99.99,Acu-Link.com,2013-08-06 16:31:00,
2013-08-06 11:46:00,83.2,75.2,29.74,North,-999,0.0,-999.0,77,-99.99,,,-99.99,Acu-Link.com,2013-08-06 16:46:00,
2013-08-06 12:01:00,85.9,77.4,29.73,North,-999,1.6,-999.0,76,-99.99,,,-99.99,Acu-Link.com,2013-08-06 17:01:00,
2013-08-06 12:16:00,85.6,75.9,29.72,North,-999,4.8,-999.0,73,-99.99,,,-99.99,Acu-Link.com,2013-08-06 17:16:00,
2013-08-06 12:31:00,85.7,78.8,29.72,North,-999,1.6,-999.0,80,-99.99,,,-99.99,Acu-Link.com,2013-08-06 17:31:00,
2013-08-06 12:47:00,85.0,76.6,29.71,North,-999,3.2,-999.0,76,-99.99,,,-99.99,Acu-Link.com,2013-08-06 17:47:00,
2013-08-06 13:02:00,85.1,77.1,29.70,North,-999,3.2,-999.0,77,-99.99,,,-99.99,Acu-Link.com,2013-08-06 18:02:00,
2013-08-06 13:17:00,87.1,78.6,29.70,North,-999,4.8,-999.0,76,-99.99,,,-99.99,Acu-Link.com,2013-08-06 18:17:00,
2013-08-06 13:33:00,87.2,77.9,29.70,North,-999,9.6,-999.0,74,-99.99,,,-99.99,Acu-Link.com,2013-08-06 18:33:00,
2013-08-06 13:48:00,87.1,79.0,29.70,North,-999,6.4,-999.0,77,-99.99,,,-99.99,Acu-Link.com,2013-08-06 18:48:00,
2013-08-06 14:04:00,87.7,78.4,29.69,North,-999,8.0,-999.0,74,-99.99,,,-99.99,Acu-Link.com,2013-08-06 19:04:00,
2013-08-06 14:19:00,87.7,79.6,29.69,North,-999,6.4,-999.0,77,-99.99,,,-99.99,Acu-Link.com,2013-08-06 19:19:00,
2013-08-06 14:34:00,88.2,80.1,29.69,North,-999,4.8,-999.0,77,-99.99,,,-99.99,Acu-Link.com,2013-08-06 19:34:00,
2013-08-06 14:49:00,88.7,80.5,29.70,North,-999,6.4,-999.0,77,-99.99,,,-99.99,Acu-Link.com,2013-08-06 19:49:00,
2013-08-06 15:05:00,89.4,80.8,29.70,North,-999,0.0,-999.0,76,-99.99,,,-99.99,Acu-Link.com,2013-08-06 20:05:00,
2013-08-06 15:20:00,90.1,81.5,29.70,North,-999,9.6,-999.0,76,-99.99,,,-99.99,Acu-Link.com,2013-08-06 20:20:00,
2013-08-06 15:35:00,88.9,81.5,29.69,North,-999,1.6,-999.0,79,-99.99,,,-99.99,Acu-Link.com,2013-08-06 20:35:00,
2013-08-06 15:51:00,89.3,80.3,29.70,North,-999,1.6,-999.0,75,-99.99,,,-99.99,Acu-Link.com,2013-08-06 20:51:00,
2013-08-06 16:06:00,87.9,79.4,29.69,North,-999,3.2,-999.0,76,-99.99,,,-99.99,Acu-Link.com,2013-08-06 21:06:00,
2013-08-06 16:21:00,88.4,79.4,29.68,North,-999,3.2,-999.0,75,-99.99,,,-99.99,Acu-Link.com,2013-08-06 21:21:00,
2013-08-06 16:37:00,89.9,79.2,29.69,North,-999,1.6,-999.0,71,-99.99,,,-99.99,Acu-Link.com,2013-08-06 21:37:00,
2013-08-06 16:52:00,87.1,79.0,29.68,North,-999,0.0,-999.0,77,-99.99,,,-99.99,Acu-Link.com,2013-08-06 21:52:00,
2013-08-06 17:07:00,90.5,81.0,29.68,North,-999,3.2,-999.0,74,-99.99,,,-99.99,Acu-Link.com,2013-08-06 22:07:00,
2013-08-06 17:22:00,88.8,79.8,29.69,North,-999,0.0,-999.0,75,-99.99,,,-99.99,Acu-Link.com,2013-08-06 22:22:00,
2013-08-06 17:37:00,91.7,80.0,29.69,North,-999,3.2,-999.0,69,-99.99,,,-99.99,Acu-Link.com,2013-08-06 22:37:00,
2013-08-06 17:53:00,92.1,81.7,29.69,North,-999,0.0,-999.0,72,-99.99,,,-99.99,Acu-Link.com,2013-08-06 22:53:00,
2013-08-06 18:08:00,89.4,80.0,29.70,North,-999,0.0,-999.0,74,-99.99,,,-99.99,Acu-Link.com,2013-08-06 23:08:00,
2013-08-06 18:23:00,88.4,79.8,29.69,North,-999,0.0,-999.0,76,-99.99,,,-99.99,Acu-Link.com,2013-08-06 23:23:00,
2013-08-06 18:38:00,85.9,79.4,29.69,North,-999,0.0,-999.0,81,-99.99,,,-99.99,Acu-Link.com,2013-08-06 23:38:00,
2013-08-06 18:54:00,87.2,80.3,29.69,North,-999,0.0,-999.0,80,-99.99,,,-99.99,Acu-Link.com,2013-08-06 23:54:00,
2013-08-06 19:09:00,87.5,79.8,29.69,North,-999,0.0,-999.0,78,-99.99,,,-99.99,Acu-Link.com,2013-08-07 00:09:00,
2013-08-06 19:24:00,87.1,80.2,29.69,North,-999,0.0,-999.0,80,-99.99,,,-99.99,Acu-Link.com,2013-08-07 00:24:00,
2013-08-06 19:39:00,86.3,80.5,29.69,North,-999,0.0,-999.0,83,-99.99,,,-99.99,Acu-Link.com,2013-08-07 00:39:00,
2013-08-06 19:55:00,84.7,80.4,29.70,North,-999,0.0,-999.0,87,-99.99,,,-99.99,Acu-Link.com,2013-08-07 00:55:00,
2013-08-06 20:10:00,82.2,80.0,29.71,North,-999,0.0,-999.0,93,-99.99,,,-99.99,Acu-Link.com,2013-08-07 01:10:00,
2013-08-06 20:25:00,80.2,79.3,29.72,North,-999,0.0,-999.0,97,-99.99,,,-99.99,Acu-Link.com,2013-08-07 01:25:00,
2013-08-06 20:40:00,78.9,78.6,29.70,North,-999,0.0,-999.0,99,-99.99,,,-99.99,Acu-Link.com,2013-08-07 01:40:00,
2013-08-06 20:56:00,77.1,76.8,29.70,North,-999,0.0,-999.0,99,-99.99,,,-99.99,Acu-Link.com,2013-08-07 01:56:00,
2013-08-06 21:11:00,75.7,75.4,29.71,North,-999,0.0,-999.0,99,-99.99,,,-99.99,Acu-Link.com,2013-08-07 02:11:00,
2013-08-06 21:26:00,74.9,74.6,29.71,North,-999,0.0,-999.0,99,-99.99,,,-99.99,Acu-Link.com,2013-08-07 02:26:00,
2013-08-06 21:42:00,74.1,73.8,29.73,North,-999,0.0,-999.0,99,-99.99,,,-99.99,Acu-Link.com,2013-08-07 02:42:00,
2013-08-06 21:57:00,73.9,73.6,29.73,North,-999,0.0,-999.0,99,-99.99,,,-99.99,Acu-Link.com,2013-08-07 02:57:00,
2013-08-06 22:12:00,75.0,74.7,29.73,North,-999,0.0,-999.0,99,-99.99,,,-99.99,Acu-Link.com,2013-08-07 03:12:00,
2013-08-06 22:28:00,74.6,74.3,29.73,North,-999,0.0,-999.0,99,-99.99,,,-99.99,Acu-Link.com,2013-08-07 03:28:00,
2013-08-06 22:43:00,74.1,73.8,29.73,North,-999,0.0,-999.0,99,-99.99,,,-99.99,Acu-Link.com,2013-08-07 03:43:00,
2013-08-06 22:58:00,74.0,73.7,29.74,North,-999,1.6,-999.0,99,-99.99,,,-99.99,Acu-Link.com,2013-08-07 03:58:00,
2013-08-06 23:13:00,73.7,73.4,29.73,North,-999,0.0,-999.0,99,-99.99,,,-99.99,Acu-Link.com,2013-08-07 04:13:00,
2013-08-06 23:29:00,73.2,72.9,29.73,North,-999,0.0,-999.0,99,-99.99,,,-99.99,Acu-Link.com,2013-08-07 04:29:00,
2013-08-06 23:44:00,73.2,72.9,29.73,North,-999,0.0,-999.0,99,-99.99,,,-99.99,Acu-Link.com,2013-08-07 04:44:00,
2013-08-06 23:59:00,72.7,72.4,29.76,North,-999,0.0,-999.0,99,-99.99,,,-99.99,Acu-Link.com,2013-08-07 04:59:00,